地図

経路データ

SID SEASON NUMBER BASIN SUBBASIN NAME ISO_TIME NATURE LAT LON WMO_WIND WMO_PRES WMO_AGENCY TRACK_TYPE DIST2LAND LANDFALL IFLAG USA_AGENCY USA_ATCF_ID USA_LAT USA_LON USA_RECORD USA_STATUS USA_WIND USA_PRES USA_SSHS USA_R34_NE USA_R34_SE USA_R34_SW USA_R34_NW USA_R50_NE USA_R50_SE USA_R50_SW USA_R50_NW USA_R64_NE USA_R64_SE USA_R64_SW USA_R64_NW USA_POCI USA_ROCI USA_RMW USA_EYE TOKYO_LAT TOKYO_LON TOKYO_GRADE TOKYO_WIND TOKYO_PRES TOKYO_R50_DIR TOKYO_R50_LONG TOKYO_R50_SHORT TOKYO_R30_DIR TOKYO_R30_LONG TOKYO_R30_SHORT TOKYO_LAND CMA_LAT CMA_LON CMA_CAT CMA_WIND CMA_PRES HKO_LAT HKO_LON HKO_CAT HKO_WIND HKO_PRES NEWDELHI_LAT NEWDELHI_LON NEWDELHI_GRADE NEWDELHI_WIND NEWDELHI_PRES NEWDELHI_CI NEWDELHI_DP NEWDELHI_POCI REUNION_LAT REUNION_LON REUNION_TYPE REUNION_WIND REUNION_PRES REUNION_TNUM REUNION_CI REUNION_RMW REUNION_R34_NE REUNION_R34_SE REUNION_R34_SW REUNION_R34_NW REUNION_R50_NE REUNION_R50_SE REUNION_R50_SW REUNION_R50_NW REUNION_R64_NE REUNION_R64_SE REUNION_R64_SW REUNION_R64_NW BOM_LAT BOM_LON BOM_TYPE BOM_WIND BOM_PRES BOM_TNUM BOM_CI BOM_RMW BOM_R34_NE BOM_R34_SE BOM_R34_SW BOM_R34_NW BOM_R50_NE BOM_R50_SE BOM_R50_SW BOM_R50_NW BOM_R64_NE BOM_R64_SE BOM_R64_SW BOM_R64_NW BOM_ROCI BOM_POCI BOM_EYE BOM_POS_METHOD BOM_PRES_METHOD NADI_LAT NADI_LON NADI_CAT NADI_WIND NADI_PRES WELLINGTON_LAT WELLINGTON_LON WELLINGTON_WIND WELLINGTON_PRES DS824_LAT DS824_LON DS824_STAGE DS824_WIND DS824_PRES TD9636_LAT TD9636_LON TD9636_STAGE TD9636_WIND TD9636_PRES TD9635_LAT TD9635_LON TD9635_WIND TD9635_PRES TD9635_ROCI NEUMANN_LAT NEUMANN_LON NEUMANN_CLASS NEUMANN_WIND NEUMANN_PRES MLC_LAT MLC_LON MLC_CLASS MLC_WIND MLC_PRES USA_GUST BOM_GUST BOM_GUST_PER REUNION_GUST REUNION_GUST_PER USA_SEAHGT USA_SEARAD_NE USA_SEARAD_SE USA_SEARAD_SW USA_SEARAD_NW STORM_SPEED STORM_DIR
1925019S15121 1925 5 SI WA NOT_NAMED 1925-01-19 01:00:00 NR -15.0000 120.500 bom main 301 301 ______O_______ -1 -15.0000 120.500 1 0
1925019S15121 1925 5 SI WA NOT_NAMED 1925-01-19 03:00:00 NR -14.9942 120.480 main 301 301 ______P_______ -1 -14.9942 120.480 1 276
1925019S15121 1925 5 SI WA NOT_NAMED 1925-01-19 06:00:00 NR -14.9937 120.449 main 309 309 ______P_______ -1 -14.9937 120.449 1 249
1925019S15121 1925 5 SI WA NOT_NAMED 1925-01-19 09:00:00 NR -15.0143 120.420 main 309 301 ______P_______ -1 -15.0143 120.420 1 220
1925019S15121 1925 5 SI WA NOT_NAMED 1925-01-19 12:00:00 NR -15.0685 120.392 main 301 293 ______P_______ -1 -15.0685 120.392 2 199
1925019S15121 1925 5 SI WA NOT_NAMED 1925-01-19 15:00:00 NR -15.1689 120.366 main 293 285 ______P_______ -1 -15.1689 120.366 3 188
1925019S15121 1925 5 SI WA NOT_NAMED 1925-01-19 18:00:00 NR -15.3282 120.342 main 293 271 ______P_______ -1 -15.3282 120.342 4 185
1925019S15121 1925 5 SI WA NOT_NAMED 1925-01-19 21:00:00 NR -15.5591 120.322 main 271 252 ______P_______ -1 -15.5591 120.322 6 183
1925019S15121 1925 5 SI WA NOT_NAMED 1925-01-20 00:00:00 TS -15.8993 120.304 main 252 246 ______P__O____ -1 -15.8741 120.305 -16.0000 120.300 TC 8 0
1925019S15121 1925 5 SI WA NOT_NAMED 1925-01-20 01:00:00 TS -16.0600 120.301 bom main 240 225 ______O__P____ -1 -16.0000 120.300 -16.1801 120.304 TC 10 0
1925019S15121 1925 5 SI WA NOT_NAMED 1925-01-20 03:00:00 TS -16.3921 120.298 main 225 206 ______P__P____ -1 -16.2831 120.291 -16.5373 120.309 TC 10 181
1925019S15121 1925 5 SI WA NOT_NAMED 1925-01-20 06:00:00 TS -16.9086 120.283 main 206 193 ______P__P____ -1 -16.7631 120.268 -17.0540 120.299 TC 10 183
1925019S15121 1925 5 SI WA NOT_NAMED 1925-01-20 09:00:00 TS -17.3995 120.235 main 202 181 ______P__P____ -1 -17.2696 120.217 -17.5294 120.252 TC 10 189
1925019S15121 1925 5 SI WA NOT_NAMED 1925-01-20 12:00:00 TS -17.8503 120.134 main 186 177 ______P__P____ -1 -17.7578 120.119 -17.9427 120.149 TC 9 197
1925019S15121 1925 5 SI WA NOT_NAMED 1925-01-20 15:00:00 TS -18.2281 119.962 main 183 162 ______P__P____ -1 -18.1829 119.953 -18.2732 119.971 TC 8 212
1925019S15121 1925 5 SI WA NOT_NAMED 1925-01-20 18:00:00 TS -18.5000 119.700 bom main 165 158 ______O__O____ -1 -18.5000 119.700 -18.5000 119.700 TC 7 236
1925019S15121 1925 5 SI WA NOT_NAMED 1925-01-20 21:00:00 TS -18.6239 119.343 main 165 146 ______P__P____ -1 -18.6156 119.357 -18.6322 119.329 TC 8 250
1925019S15121 1925 5 SI WA NOT_NAMED 1925-01-21 00:00:00 TS -18.7670 118.923 main 146 146 ______P__O____ -1 -18.7340 118.946 -18.8000 118.900 TC 9 247
1925019S15121 1925 5 SI WA NOT_NAMED 1925-01-21 01:00:00 TS -18.8513 118.777 bom main 137 133 ______O__P____ -1 -18.8000 118.800 -18.9026 118.755 TC 10 237
1925019S15121 1925 5 SI WA NOT_NAMED 1925-01-21 03:00:00 TS -19.0470 118.465 main 138 101 ______P__P____ -1 -18.9316 118.478 -19.1625 118.453 TC 12 232
1925019S15121 1925 5 SI WA NOT_NAMED 1925-01-21 06:00:00 TS -19.4511 117.977 main 101 69 ______P__P____ -1 -19.2458 117.968 -19.6563 117.986 TC 13 223
1925019S15121 1925 5 SI WA NOT_NAMED 1925-01-21 09:00:00 TS -20.0104 117.512 main 69 35 ______P__P____ -1 -19.7990 117.497 -20.2218 117.527 TC 15 215
1925019S15121 1925 5 SI WA NOT_NAMED 1925-01-21 10:30:00 TS -20.3565 117.304 bom main 35 0 ______O__P____ -1 -20.2000 117.300 -20.5130 117.307 TC 17 207
1925019S15121 1925 5 SI WA NOT_NAMED 1925-01-21 12:00:00 TS -20.7453 117.117 main 0 0 ______P__O____ -1 -20.6905 117.135 -20.8000 117.100 TC 90 952 17 204
1925019S15121 1925 5 SI WA NOT_NAMED 1925-01-21 12:20:00 TS -20.8312 117.078 952 bom main 0 0 ______O__P____ -1 -20.8000 117.100 952 4 -20.8625 117.056 TC 15 204
1925019S15121 1925 5 SI WA NOT_NAMED 1925-01-21 15:00:00 TS -21.4453 116.776 main 0 0 ______P__P____ -1 -21.5482 116.823 -21.3423 116.729 TC 14 205
1925019S15121 1925 5 SI WA NOT_NAMED 1925-01-21 18:00:00 TS -22.0293 116.477 main 0 0 ______P__P____ -1 -22.2161 116.538 -21.8425 116.415 TC 12 206
1925019S15121 1925 5 SI WA NOT_NAMED 1925-01-21 21:00:00 TS -22.5235 116.218 main 0 0 ______P__P____ -1 -22.7425 116.285 -22.3046 116.152 TC 10 205
1925019S15121 1925 5 SI WA NOT_NAMED 1925-01-22 00:00:00 TS -22.9520 116.001 main 0 0 ______P__P____ -1 -23.1712 116.065 -22.7328 115.937 TC 9 205
1925019S15121 1925 5 SI WA NOT_NAMED 1925-01-22 01:00:00 TS -23.0843 115.937 bom main 0 0 ______O__P____ -1 -23.3000 116.000 -22.8686 115.875 TC 8 203
1925019S15121 1925 5 SI WA NOT_NAMED 1925-01-22 03:00:00 TS -23.3376 115.823 main 0 0 ______P__P____ -1 -23.5443 115.882 -23.1309 115.764 TC 8 201
1925019S15121 1925 5 SI WA NOT_NAMED 1925-01-22 06:00:00 TS -23.6921 115.681 main 0 0 ______P__P____ -1 -23.8812 115.733 -23.5030 115.628 TC 7 199
1925019S15121 1925 5 SI WA NOT_NAMED 1925-01-22 09:00:00 TS -24.0200 115.569 main 0 0 ______P__P____ -1 -24.1873 115.615 -23.8528 115.524 TC 7 196
1925019S15121 1925 5 SI WA NOT_NAMED 1925-01-22 12:00:00 TS -24.3258 115.484 main 0 0 ______P__P____ -1 -24.4673 115.522 -24.1842 115.446 TC 6 193
1925019S15121 1925 5 SI WA NOT_NAMED 1925-01-22 15:00:00 TS -24.6136 115.421 main 0 0 ______P__P____ -1 -24.7263 115.450 -24.5009 115.391 TC 6 189
1925019S15121 1925 5 SI WA NOT_NAMED 1925-01-22 18:00:00 TS -24.8995 115.376 main 0 0 ______P__P____ -1 -24.9691 115.395 -24.8066 115.352 TC 6 187
1925019S15121 1925 5 SI WA NOT_NAMED 1925-01-22 21:00:00 TS -25.1624 115.339 main 0 0 ______P__P____ -1 -25.2006 115.350 -25.1051 115.323 TC 5 186
1925019S15121 1925 5 SI WA NOT_NAMED 1925-01-23 00:00:00 TS -25.4171 115.308 main 0 0 ______P__O____ -1 -25.4256 115.312 -25.4000 115.300 TC 5 187
1925019S15121 1925 5 SI WA NOT_NAMED 1925-01-23 01:00:00 NR -25.5000 115.300 bom main 0 ______O_______ -1 -25.5000 115.300 TC 5 0

IBTrACS Databaseについて

本データベースは、米国NOAAが公開する1842年以降の世界の熱帯低気圧のベストトラックデータアーカイブInternational Best Track Archive for Climate Stewardship (IBTrACS)を、ウェブで閲覧しやすい形式に変換したものです。

最終更新日:2021-10-21